sensor_id;sensor_type;location;lat;lon;timestamp;temperature;humidity
20985;DHT22;10651;47.552;7.606;2023-05-10T00:01:48;15.20;99.90
20985;DHT22;10651;47.552;7.606;2023-05-10T00:04:13;15.20;99.90
20985;DHT22;10651;47.552;7.606;2023-05-10T00:06:39;15.20;99.90
20985;DHT22;10651;47.552;7.606;2023-05-10T00:09:05;15.20;99.90
20985;DHT22;10651;47.552;7.606;2023-05-10T00:11:30;15.20;99.90
20985;DHT22;10651;47.552;7.606;2023-05-10T00:13:56;15.10;99.90
20985;DHT22;10651;47.552;7.606;2023-05-10T00:16:22;15.10;99.90
20985;DHT22;10651;47.552;7.606;2023-05-10T00:18:47;15.10;99.90
20985;DHT22;10651;47.552;7.606;2023-05-10T00:21:13;15.10;99.90
20985;DHT22;10651;47.552;7.606;2023-05-10T00:23:39;15.10;99.90
20985;DHT22;10651;47.552;7.606;2023-05-10T00:26:04;15.10;99.90
20985;DHT22;10651;47.552;7.606;2023-05-10T00:28:30;15.10;99.90
20985;DHT22;10651;47.552;7.606;2023-05-10T00:30:56;15.10;99.90
20985;DHT22;10651;47.552;7.606;2023-05-10T00:33:22;15.20;99.90
20985;DHT22;10651;47.552;7.606;2023-05-10T00:35:47;15.20;99.90
20985;DHT22;10651;47.552;7.606;2023-05-10T00:38:13;15.20;99.90
20985;DHT22;10651;47.552;7.606;2023-05-10T00:40:39;15.10;99.90
20985;DHT22;10651;47.552;7.606;2023-05-10T00:43:05;15.10;99.90
20985;DHT22;10651;47.552;7.606;2023-05-10T00:45:32;15.10;99.90
20985;DHT22;10651;47.552;7.606;2023-05-10T00:48:01;15.10;99.90
20985;DHT22;10651;47.552;7.606;2023-05-10T00:50:28;15.20;99.90
20985;DHT22;10651;47.552;7.606;2023-05-10T00:52:54;15.10;99.90
20985;DHT22;10651;47.552;7.606;2023-05-10T00:55:20;15.10;99.90
20985;DHT22;10651;47.552;7.606;2023-05-10T00:57:47;15.10;99.90
20985;DHT22;10651;47.552;7.606;2023-05-10T01:00:13;15.10;99.90
20985;DHT22;10651;47.552;7.606;2023-05-10T01:02:46;15.10;99.90
20985;DHT22;10651;47.552;7.606;2023-05-10T01:05:12;15.10;99.90
20985;DHT22;10651;47.552;7.606;2023-05-10T01:07:39;15.10;99.90
20985;DHT22;10651;47.552;7.606;2023-05-10T01:10:08;15.00;99.90
20985;DHT22;10651;47.552;7.606;2023-05-10T01:12:37;15.10;99.90
20985;DHT22;10651;47.552;7.606;2023-05-10T01:15:04;15.10;99.90
20985;DHT22;10651;47.552;7.606;2023-05-10T01:17:30;15.10;99.90
20985;DHT22;10651;47.552;7.606;2023-05-10T01:19:56;15.10;99.90
20985;DHT22;10651;47.552;7.606;2023-05-10T01:22:59;15.10;99.90
20985;DHT22;10651;47.552;7.606;2023-05-10T01:31:57;15.10;99.90
20985;DHT22;10651;47.552;7.606;2023-05-10T01:37:23;15.10;99.90
20985;DHT22;10651;47.552;7.606;2023-05-10T01:40:09;15.20;99.90
20985;DHT22;10651;47.552;7.606;2023-05-10T01:42:59;15.20;99.90
20985;DHT22;10651;47.552;7.606;2023-05-10T01:45:37;15.20;99.90
20985;DHT22;10651;47.552;7.606;2023-05-10T01:48:10;15.20;99.90
20985;DHT22;10651;47.552;7.606;2023-05-10T01:50:38;15.20;99.90
20985;DHT22;10651;47.552;7.606;2023-05-10T01:53:07;15.20;99.90
20985;DHT22;10651;47.552;7.606;2023-05-10T01:55:38;15.20;99.90
20985;DHT22;10651;47.552;7.606;2023-05-10T01:58:10;15.20;99.90
20985;DHT22;10651;47.552;7.606;2023-05-10T02:00:40;15.20;99.90
20985;DHT22;10651;47.552;7.606;2023-05-10T02:03:08;15.20;99.90
20985;DHT22;10651;47.552;7.606;2023-05-10T02:05:36;15.20;99.90
20985;DHT22;10651;47.552;7.606;2023-05-10T02:08:05;15.10;99.90
20985;DHT22;10651;47.552;7.606;2023-05-10T02:10:36;15.10;99.90
20985;DHT22;10651;47.552;7.606;2023-05-10T02:13:03;15.00;99.90
20985;DHT22;10651;47.552;7.606;2023-05-10T02:15:29;15.00;99.90
20985;DHT22;10651;47.552;7.606;2023-05-10T02:17:58;15.00;99.90
20985;DHT22;10651;47.552;7.606;2023-05-10T02:20:25;15.00;99.90
20985;DHT22;10651;47.552;7.606;2023-05-10T02:22:54;15.00;99.90
20985;DHT22;10651;47.552;7.606;2023-05-10T02:25:21;15.00;99.90
20985;DHT22;10651;47.552;7.606;2023-05-10T02:27:47;14.90;99.90
20985;DHT22;10651;47.552;7.606;2023-05-10T02:30:14;14.90;99.90
20985;DHT22;10651;47.552;7.606;2023-05-10T02:32:41;14.90;99.90
20985;DHT22;10651;47.552;7.606;2023-05-10T02:35:08;15.00;99.90
20985;DHT22;10651;47.552;7.606;2023-05-10T02:37:34;15.00;99.90
20985;DHT22;10651;47.552;7.606;2023-05-10T02:40:01;15.00;99.90
20985;DHT22;10651;47.552;7.606;2023-05-10T02:42:29;15.10;99.90
20985;DHT22;10651;47.552;7.606;2023-05-10T02:45:08;15.00;99.90
20985;DHT22;10651;47.552;7.606;2023-05-10T02:47:36;15.00;99.90
20985;DHT22;10651;47.552;7.606;2023-05-10T02:50:02;15.10;99.90
20985;DHT22;10651;47.552;7.606;2023-05-10T02:52:33;15.10;99.90
20985;DHT22;10651;47.552;7.606;2023-05-10T02:55:02;15.10;99.90
20985;DHT22;10651;47.552;7.606;2023-05-10T02:57:33;15.10;99.90
20985;DHT22;10651;47.552;7.606;2023-05-10T03:00:00;15.00;99.90
20985;DHT22;10651;47.552;7.606;2023-05-10T03:02:26;15.00;99.90
20985;DHT22;10651;47.552;7.606;2023-05-10T03:04:52;15.00;99.90
20985;DHT22;10651;47.552;7.606;2023-05-10T03:07:18;15.00;99.90
20985;DHT22;10651;47.552;7.606;2023-05-10T03:09:47;15.00;99.90
20985;DHT22;10651;47.552;7.606;2023-05-10T03:18:22;15.00;99.90
20985;DHT22;10651;47.552;7.606;2023-05-10T03:20:50;15.00;99.90
20985;DHT22;10651;47.552;7.606;2023-05-10T03:23:30;15.00;99.90
20985;DHT22;10651;47.552;7.606;2023-05-10T03:25:59;15.00;99.90
20985;DHT22;10651;47.552;7.606;2023-05-10T03:28:26;15.00;99.90
20985;DHT22;10651;47.552;7.606;2023-05-10T03:30:55;14.90;99.90
20985;DHT22;10651;47.552;7.606;2023-05-10T03:33:21;14.90;99.90
20985;DHT22;10651;47.552;7.606;2023-05-10T03:35:48;14.90;99.90
20985;DHT22;10651;47.552;7.606;2023-05-10T03:38:13;14.80;99.90
20985;DHT22;10651;47.552;7.606;2023-05-10T03:40:39;14.80;99.90
20985;DHT22;10651;47.552;7.606;2023-05-10T03:43:05;14.90;99.90
20985;DHT22;10651;47.552;7.606;2023-05-10T03:45:31;14.90;99.90
20985;DHT22;10651;47.552;7.606;2023-05-10T03:47:57;14.80;99.90
20985;DHT22;10651;47.552;7.606;2023-05-10T03:50:23;14.90;99.90
20985;DHT22;10651;47.552;7.606;2023-05-10T03:52:49;14.90;99.90
20985;DHT22;10651;47.552;7.606;2023-05-10T03:55:15;14.90;99.90
20985;DHT22;10651;47.552;7.606;2023-05-10T03:57:42;14.80;99.90
20985;DHT22;10651;47.552;7.606;2023-05-10T04:00:08;14.80;99.90
20985;DHT22;10651;47.552;7.606;2023-05-10T04:02:34;14.80;99.90
20985;DHT22;10651;47.552;7.606;2023-05-10T04:05:00;14.80;99.90
20985;DHT22;10651;47.552;7.606;2023-05-10T04:07:25;14.70;99.90
20985;DHT22;10651;47.552;7.606;2023-05-10T04:09:51;14.70;99.90
20985;DHT22;10651;47.552;7.606;2023-05-10T04:12:17;14.70;99.90
20985;DHT22;10651;47.552;7.606;2023-05-10T04:14:43;14.60;99.90
20985;DHT22;10651;47.552;7.606;2023-05-10T04:17:09;14.60;99.90
20985;DHT22;10651;47.552;7.606;2023-05-10T04:19:34;14.60;99.90
20985;DHT22;10651;47.552;7.606;2023-05-10T04:22:02;14.60;99.90
20985;DHT22;10651;47.552;7.606;2023-05-10T04:24:28;14.60;99.90
20985;DHT22;10651;47.552;7.606;2023-05-10T04:26:54;14.60;99.90
20985;DHT22;10651;47.552;7.606;2023-05-10T04:29:20;14.60;99.90
20985;DHT22;10651;47.552;7.606;2023-05-10T04:31:46;14.60;99.90
20985;DHT22;10651;47.552;7.606;2023-05-10T04:34:12;14.60;99.90
20985;DHT22;10651;47.552;7.606;2023-05-10T04:36:37;14.60;99.90
20985;DHT22;10651;47.552;7.606;2023-05-10T04:39:04;14.50;99.90
20985;DHT22;10651;47.552;7.606;2023-05-10T04:41:32;14.40;99.90
20985;DHT22;10651;47.552;7.606;2023-05-10T04:43:58;14.40;99.90
20985;DHT22;10651;47.552;7.606;2023-05-10T04:46:23;14.30;99.90
20985;DHT22;10651;47.552;7.606;2023-05-10T04:48:49;14.30;99.90
20985;DHT22;10651;47.552;7.606;2023-05-10T04:51:15;14.30;99.90
20985;DHT22;10651;47.552;7.606;2023-05-10T04:53:40;14.20;99.90
20985;DHT22;10651;47.552;7.606;2023-05-10T04:56:06;14.20;99.90
20985;DHT22;10651;47.552;7.606;2023-05-10T04:58:32;14.20;99.90
20985;DHT22;10651;47.552;7.606;2023-05-10T05:01:05;14.20;99.90
20985;DHT22;10651;47.552;7.606;2023-05-10T05:03:32;14.20;99.90
20985;DHT22;10651;47.552;7.606;2023-05-10T05:05:58;14.20;99.90
20985;DHT22;10651;47.552;7.606;2023-05-10T05:08:30;14.20;99.90
20985;DHT22;10651;47.552;7.606;2023-05-10T05:11:00;14.10;99.90
20985;DHT22;10651;47.552;7.606;2023-05-10T05:13:26;14.20;99.90
20985;DHT22;10651;47.552;7.606;2023-05-10T05:15:51;14.20;99.90
20985;DHT22;10651;47.552;7.606;2023-05-10T05:18:17;14.20;99.90
20985;DHT22;10651;47.552;7.606;2023-05-10T05:23:52;14.40;99.90
20985;DHT22;10651;47.552;7.606;2023-05-10T05:26:17;14.30;99.90
20985;DHT22;10651;47.552;7.606;2023-05-10T05:28:43;14.30;99.90
20985;DHT22;10651;47.552;7.606;2023-05-10T05:31:09;14.30;99.90
20985;DHT22;10651;47.552;7.606;2023-05-10T05:33:35;14.30;99.90
20985;DHT22;10651;47.552;7.606;2023-05-10T05:36:02;14.30;99.90
20985;DHT22;10651;47.552;7.606;2023-05-10T05:38:28;14.20;99.90
20985;DHT22;10651;47.552;7.606;2023-05-10T05:40:54;14.20;99.90
20985;DHT22;10651;47.552;7.606;2023-05-10T05:43:20;14.30;99.90
20985;DHT22;10651;47.552;7.606;2023-05-10T05:45:46;14.30;99.90
20985;DHT22;10651;47.552;7.606;2023-05-10T05:48:11;14.30;99.90
20985;DHT22;10651;47.552;7.606;2023-05-10T05:50:37;14.40;99.90
20985;DHT22;10651;47.552;7.606;2023-05-10T05:53:02;14.40;99.90
20985;DHT22;10651;47.552;7.606;2023-05-10T05:55:31;14.40;99.90
20985;DHT22;10651;47.552;7.606;2023-05-10T05:57:58;14.40;99.90
20985;DHT22;10651;47.552;7.606;2023-05-10T06:00:24;14.40;99.90
20985;DHT22;10651;47.552;7.606;2023-05-10T06:02:49;14.40;99.90
20985;DHT22;10651;47.552;7.606;2023-05-10T06:05:15;14.40;99.90
20985;DHT22;10651;47.552;7.606;2023-05-10T06:07:41;14.40;99.90
20985;DHT22;10651;47.552;7.606;2023-05-10T06:10:12;14.40;99.90
20985;DHT22;10651;47.552;7.606;2023-05-10T06:12:38;14.40;99.90
20985;DHT22;10651;47.552;7.606;2023-05-10T06:15:06;14.50;99.90
20985;DHT22;10651;47.552;7.606;2023-05-10T06:17:34;14.60;99.90
20985;DHT22;10651;47.552;7.606;2023-05-10T06:20:00;14.60;99.90
20985;DHT22;10651;47.552;7.606;2023-05-10T06:22:26;14.50;99.90
20985;DHT22;10651;47.552;7.606;2023-05-10T06:24:51;14.70;99.90
20985;DHT22;10651;47.552;7.606;2023-05-10T06:27:17;14.60;99.90
20985;DHT22;10651;47.552;7.606;2023-05-10T06:29:43;14.70;99.90
20985;DHT22;10651;47.552;7.606;2023-05-10T06:32:08;14.70;99.90
20985;DHT22;10651;47.552;7.606;2023-05-10T06:34:34;14.60;99.90
20985;DHT22;10651;47.552;7.606;2023-05-10T06:36:59;14.80;99.90
20985;DHT22;10651;47.552;7.606;2023-05-10T06:39:28;15.00;99.90
20985;DHT22;10651;47.552;7.606;2023-05-10T06:41:54;15.10;99.90
20985;DHT22;10651;47.552;7.606;2023-05-10T06:44:19;15.10;99.90
20985;DHT22;10651;47.552;7.606;2023-05-10T06:46:45;15.00;99.90
20985;DHT22;10651;47.552;7.606;2023-05-10T06:49:11;15.00;99.90
20985;DHT22;10651;47.552;7.606;2023-05-10T06:51:36;15.20;99.90
20985;DHT22;10651;47.552;7.606;2023-05-10T06:54:02;15.20;99.90
20985;DHT22;10651;47.552;7.606;2023-05-10T06:56:28;15.20;99.90
20985;DHT22;10651;47.552;7.606;2023-05-10T06:58:54;15.20;99.90
20985;DHT22;10651;47.552;7.606;2023-05-10T07:01:19;15.20;99.90
20985;DHT22;10651;47.552;7.606;2023-05-10T07:03:45;15.30;99.90
20985;DHT22;10651;47.552;7.606;2023-05-10T07:06:11;15.20;99.90
20985;DHT22;10651;47.552;7.606;2023-05-10T07:08:37;15.20;99.90
20985;DHT22;10651;47.552;7.606;2023-05-10T07:11:04;15.30;99.90
20985;DHT22;10651;47.552;7.606;2023-05-10T07:13:31;15.20;99.90
20985;DHT22;10651;47.552;7.606;2023-05-10T07:15:57;15.10;99.90
20985;DHT22;10651;47.552;7.606;2023-05-10T07:18:24;15.00;99.90
20985;DHT22;10651;47.552;7.606;2023-05-10T07:20:49;15.00;99.90
20985;DHT22;10651;47.552;7.606;2023-05-10T07:23:15;15.00;99.90
20985;DHT22;10651;47.552;7.606;2023-05-10T07:25:45;15.00;99.90
20985;DHT22;10651;47.552;7.606;2023-05-10T07:28:11;15.10;99.90
20985;DHT22;10651;47.552;7.606;2023-05-10T07:30:37;15.40;99.90
20985;DHT22;10651;47.552;7.606;2023-05-10T07:33:02;15.50;99.90
20985;DHT22;10651;47.552;7.606;2023-05-10T07:35:28;15.50;99.90
20985;DHT22;10651;47.552;7.606;2023-05-10T07:37:53;15.50;99.90
20985;DHT22;10651;47.552;7.606;2023-05-10T07:40:19;15.40;99.90
20985;DHT22;10651;47.552;7.606;2023-05-10T07:42:45;15.20;99.90
20985;DHT22;10651;47.552;7.606;2023-05-10T07:45:11;15.20;99.90
20985;DHT22;10651;47.552;7.606;2023-05-10T07:47:36;15.20;99.90
20985;DHT22;10651;47.552;7.606;2023-05-10T07:50:02;15.50;99.90
20985;DHT22;10651;47.552;7.606;2023-05-10T07:52:37;15.80;99.90
20985;DHT22;10651;47.552;7.606;2023-05-10T07:57:29;16.10;99.90
20985;DHT22;10651;47.552;7.606;2023-05-10T07:59:54;16.10;99.90
20985;DHT22;10651;47.552;7.606;2023-05-10T08:02:20;16.20;99.90
20985;DHT22;10651;47.552;7.606;2023-05-10T08:04:46;16.40;99.90
20985;DHT22;10651;47.552;7.606;2023-05-10T08:07:11;16.40;99.90
20985;DHT22;10651;47.552;7.606;2023-05-10T08:09:37;16.40;99.90
20985;DHT22;10651;47.552;7.606;2023-05-10T08:12:03;16.20;99.90
20985;DHT22;10651;47.552;7.606;2023-05-10T08:14:29;16.00;99.90
20985;DHT22;10651;47.552;7.606;2023-05-10T08:16:55;15.80;99.90
20985;DHT22;10651;47.552;7.606;2023-05-10T08:19:21;15.60;99.90
20985;DHT22;10651;47.552;7.606;2023-05-10T08:21:48;15.50;99.90
20985;DHT22;10651;47.552;7.606;2023-05-10T08:24:14;15.60;99.90
20985;DHT22;10651;47.552;7.606;2023-05-10T08:26:40;15.70;99.90
20985;DHT22;10651;47.552;7.606;2023-05-10T08:29:05;15.80;99.90
20985;DHT22;10651;47.552;7.606;2023-05-10T08:31:31;16.00;99.90
20985;DHT22;10651;47.552;7.606;2023-05-10T08:34:00;16.10;99.90
20985;DHT22;10651;47.552;7.606;2023-05-10T08:36:26;16.40;99.90
20985;DHT22;10651;47.552;7.606;2023-05-10T08:38:52;16.60;99.90
20985;DHT22;10651;47.552;7.606;2023-05-10T08:41:22;16.80;99.90
20985;DHT22;10651;47.552;7.606;2023-05-10T08:43:53;16.80;99.90
20985;DHT22;10651;47.552;7.606;2023-05-10T08:46:21;16.90;99.90
20985;DHT22;10651;47.552;7.606;2023-05-10T08:48:49;16.70;99.90
20985;DHT22;10651;47.552;7.606;2023-05-10T08:51:18;16.60;99.90
20985;DHT22;10651;47.552;7.606;2023-05-10T08:53:45;16.50;99.90
20985;DHT22;10651;47.552;7.606;2023-05-10T08:56:11;16.40;99.90
20985;DHT22;10651;47.552;7.606;2023-05-10T08:58:37;16.50;99.90
20985;DHT22;10651;47.552;7.606;2023-05-10T09:01:05;16.90;99.90
20985;DHT22;10651;47.552;7.606;2023-05-10T09:03:31;17.10;99.90
20985;DHT22;10651;47.552;7.606;2023-05-10T09:05:59;17.20;99.90
20985;DHT22;10651;47.552;7.606;2023-05-10T09:08:25;17.00;99.90
20985;DHT22;10651;47.552;7.606;2023-05-10T09:10:52;16.90;99.90
20985;DHT22;10651;47.552;7.606;2023-05-10T09:13:18;16.80;99.90
20985;DHT22;10651;47.552;7.606;2023-05-10T09:15:45;16.60;99.90
20985;DHT22;10651;47.552;7.606;2023-05-10T09:18:11;16.40;99.90
20985;DHT22;10651;47.552;7.606;2023-05-10T09:20:37;17.00;99.90
20985;DHT22;10651;47.552;7.606;2023-05-10T09:23:03;16.90;99.90
20985;DHT22;10651;47.552;7.606;2023-05-10T09:25:29;16.80;99.90
20985;DHT22;10651;47.552;7.606;2023-05-10T09:27:55;16.70;99.90
20985;DHT22;10651;47.552;7.606;2023-05-10T09:30:26;17.00;99.90
20985;DHT22;10651;47.552;7.606;2023-05-10T09:32:52;17.30;99.90
20985;DHT22;10651;47.552;7.606;2023-05-10T09:35:20;17.80;99.90
20985;DHT22;10651;47.552;7.606;2023-05-10T09:37:52;18.00;99.90
20985;DHT22;10651;47.552;7.606;2023-05-10T09:40:30;18.30;99.90
20985;DHT22;10651;47.552;7.606;2023-05-10T09:43:23;18.40;99.90
20985;DHT22;10651;47.552;7.606;2023-05-10T09:45:52;18.20;99.90
20985;DHT22;10651;47.552;7.606;2023-05-10T09:48:23;18.20;99.90
20985;DHT22;10651;47.552;7.606;2023-05-10T09:50:57;18.30;99.90
20985;DHT22;10651;47.552;7.606;2023-05-10T09:53:23;17.80;99.90
20985;DHT22;10651;47.552;7.606;2023-05-10T09:55:49;17.70;99.90
20985;DHT22;10651;47.552;7.606;2023-05-10T09:58:16;18.20;99.90
20985;DHT22;10651;47.552;7.606;2023-05-10T10:00:46;18.20;99.90
20985;DHT22;10651;47.552;7.606;2023-05-10T10:03:20;18.20;99.90
20985;DHT22;10651;47.552;7.606;2023-05-10T10:05:47;18.20;99.90
20985;DHT22;10651;47.552;7.606;2023-05-10T10:08:14;17.90;99.90
20985;DHT22;10651;47.552;7.606;2023-05-10T10:10:40;17.80;99.90
20985;DHT22;10651;47.552;7.606;2023-05-10T10:13:07;17.40;99.90
20985;DHT22;10651;47.552;7.606;2023-05-10T10:15:36;17.10;99.90
20985;DHT22;10651;47.552;7.606;2023-05-10T10:18:02;17.10;99.90
20985;DHT22;10651;47.552;7.606;2023-05-10T10:20:31;17.10;99.90
20985;DHT22;10651;47.552;7.606;2023-05-10T10:22:57;17.40;99.90
20985;DHT22;10651;47.552;7.606;2023-05-10T10:25:23;17.70;99.90
20985;DHT22;10651;47.552;7.606;2023-05-10T10:30:48;18.30;99.90
20985;DHT22;10651;47.552;7.606;2023-05-10T10:35:54;18.50;99.90
20985;DHT22;10651;47.552;7.606;2023-05-10T10:38:21;18.70;99.90
20985;DHT22;10651;47.552;7.606;2023-05-10T10:40:47;19.10;99.90
20985;DHT22;10651;47.552;7.606;2023-05-10T10:43:27;19.50;99.90
20985;DHT22;10651;47.552;7.606;2023-05-10T10:46:16;19.80;99.90
20985;DHT22;10651;47.552;7.606;2023-05-10T10:51:39;20.60;99.90
20985;DHT22;10651;47.552;7.606;2023-05-10T10:54:29;20.30;99.90
20985;DHT22;10651;47.552;7.606;2023-05-10T10:57:17;20.10;99.90
20985;DHT22;10651;47.552;7.606;2023-05-10T10:59:44;19.90;99.90
20985;DHT22;10651;47.552;7.606;2023-05-10T11:10:48;20.40;99.90
20985;DHT22;10651;47.552;7.606;2023-05-10T11:13:14;20.60;99.90
20985;DHT22;10651;47.552;7.606;2023-05-10T11:15:48;20.80;99.90
20985;DHT22;10651;47.552;7.606;2023-05-10T11:18:23;21.10;99.90
20985;DHT22;10651;47.552;7.606;2023-05-10T11:20:58;20.90;99.90
20985;DHT22;10651;47.552;7.606;2023-05-10T11:26:09;20.00;99.90
20985;DHT22;10651;47.552;7.606;2023-05-10T11:28:44;19.60;99.90
20985;DHT22;10651;47.552;7.606;2023-05-10T11:31:12;19.30;99.90
20985;DHT22;10651;47.552;7.606;2023-05-10T11:33:52;19.10;99.90
20985;DHT22;10651;47.552;7.606;2023-05-10T11:36:26;18.90;99.90
20985;DHT22;10651;47.552;7.606;2023-05-10T11:38:53;19.00;99.90
20985;DHT22;10651;47.552;7.606;2023-05-10T11:41:20;19.10;99.90
20985;DHT22;10651;47.552;7.606;2023-05-10T11:43:53;18.90;99.90
20985;DHT22;10651;47.552;7.606;2023-05-10T11:46:21;18.50;99.90
20985;DHT22;10651;47.552;7.606;2023-05-10T11:49:01;18.60;99.90
20985;DHT22;10651;47.552;7.606;2023-05-10T11:51:29;18.70;99.90
20985;DHT22;10651;47.552;7.606;2023-05-10T11:53:58;19.20;99.90
20985;DHT22;10651;47.552;7.606;2023-05-10T11:56:26;19.80;99.90
20985;DHT22;10651;47.552;7.606;2023-05-10T11:59:18;19.90;99.90
20985;DHT22;10651;47.552;7.606;2023-05-10T12:01:44;19.80;99.90
20985;DHT22;10651;47.552;7.606;2023-05-10T12:04:10;19.80;99.90
20985;DHT22;10651;47.552;7.606;2023-05-10T12:06:40;19.60;99.90
20985;DHT22;10651;47.552;7.606;2023-05-10T12:09:07;19.10;99.90
20985;DHT22;10651;47.552;7.606;2023-05-10T12:11:37;18.90;99.90
20985;DHT22;10651;47.552;7.606;2023-05-10T12:14:04;18.30;99.90
20985;DHT22;10651;47.552;7.606;2023-05-10T12:16:30;18.10;99.90
20985;DHT22;10651;47.552;7.606;2023-05-10T12:18:59;18.00;99.90
20985;DHT22;10651;47.552;7.606;2023-05-10T12:21:27;18.20;99.90
20985;DHT22;10651;47.552;7.606;2023-05-10T12:23:58;18.80;99.90
20985;DHT22;10651;47.552;7.606;2023-05-10T12:26:25;19.00;99.90
20985;DHT22;10651;47.552;7.606;2023-05-10T12:28:53;18.90;99.90
20985;DHT22;10651;47.552;7.606;2023-05-10T12:31:19;18.70;99.90
20985;DHT22;10651;47.552;7.606;2023-05-10T12:33:45;18.80;99.90
20985;DHT22;10651;47.552;7.606;2023-05-10T12:36:15;19.00;99.90
20985;DHT22;10651;47.552;7.606;2023-05-10T12:38:43;19.30;99.90
20985;DHT22;10651;47.552;7.606;2023-05-10T12:41:11;19.00;99.90
20985;DHT22;10651;47.552;7.606;2023-05-10T12:43:38;19.10;99.90
20985;DHT22;10651;47.552;7.606;2023-05-10T12:46:05;19.80;99.90
20985;DHT22;10651;47.552;7.606;2023-05-10T12:48:31;20.40;99.90
20985;DHT22;10651;47.552;7.606;2023-05-10T12:50:59;20.70;99.90
20985;DHT22;10651;47.552;7.606;2023-05-10T12:53:25;21.00;99.90
20985;DHT22;10651;47.552;7.606;2023-05-10T12:55:51;21.20;99.90
20985;DHT22;10651;47.552;7.606;2023-05-10T12:58:16;21.40;99.90
20985;DHT22;10651;47.552;7.606;2023-05-10T13:00:42;21.30;99.90
20985;DHT22;10651;47.552;7.606;2023-05-10T13:03:09;21.10;99.90
20985;DHT22;10651;47.552;7.606;2023-05-10T13:05:35;20.40;99.90
20985;DHT22;10651;47.552;7.606;2023-05-10T13:08:01;19.90;99.90
20985;DHT22;10651;47.552;7.606;2023-05-10T13:10:29;19.50;99.90
20985;DHT22;10651;47.552;7.606;2023-05-10T13:12:55;19.80;99.90
20985;DHT22;10651;47.552;7.606;2023-05-10T13:15:21;20.40;99.90
20985;DHT22;10651;47.552;7.606;2023-05-10T13:17:47;20.40;99.90
20985;DHT22;10651;47.552;7.606;2023-05-10T13:20:13;20.20;99.90
20985;DHT22;10651;47.552;7.606;2023-05-10T13:22:40;20.10;99.90
20985;DHT22;10651;47.552;7.606;2023-05-10T13:25:06;20.00;99.90
20985;DHT22;10651;47.552;7.606;2023-05-10T13:27:32;19.70;99.90
20985;DHT22;10651;47.552;7.606;2023-05-10T13:29:58;19.30;99.90
20985;DHT22;10651;47.552;7.606;2023-05-10T13:32:25;19.20;99.90
20985;DHT22;10651;47.552;7.606;2023-05-10T13:34:51;19.10;99.90
20985;DHT22;10651;47.552;7.606;2023-05-10T13:37:16;19.00;99.90
20985;DHT22;10651;47.552;7.606;2023-05-10T13:39:42;19.00;99.90
20985;DHT22;10651;47.552;7.606;2023-05-10T13:42:08;19.30;99.90
20985;DHT22;10651;47.552;7.606;2023-05-10T13:44:36;19.60;99.90
20985;DHT22;10651;47.552;7.606;2023-05-10T13:47:04;20.00;99.90
20985;DHT22;10651;47.552;7.606;2023-05-10T13:49:30;20.30;99.90
20985;DHT22;10651;47.552;7.606;2023-05-10T13:51:56;20.70;99.90
20985;DHT22;10651;47.552;7.606;2023-05-10T13:54:21;20.70;99.90
20985;DHT22;10651;47.552;7.606;2023-05-10T13:56:47;21.20;99.90
20985;DHT22;10651;47.552;7.606;2023-05-10T13:59:14;21.00;99.90
20985;DHT22;10651;47.552;7.606;2023-05-10T14:01:49;21.00;99.90
20985;DHT22;10651;47.552;7.606;2023-05-10T14:04:24;21.00;99.90
20985;DHT22;10651;47.552;7.606;2023-05-10T14:06:50;21.30;99.90
20985;DHT22;10651;47.552;7.606;2023-05-10T14:09:16;21.10;99.90
20985;DHT22;10651;47.552;7.606;2023-05-10T14:11:42;21.20;99.90
20985;DHT22;10651;47.552;7.606;2023-05-10T14:14:09;21.30;99.90
20985;DHT22;10651;47.552;7.606;2023-05-10T14:16:35;21.20;99.90
20985;DHT22;10651;47.552;7.606;2023-05-10T14:19:00;21.60;99.90
20985;DHT22;10651;47.552;7.606;2023-05-10T14:21:27;22.00;99.90
20985;DHT22;10651;47.552;7.606;2023-05-10T14:23:54;22.20;99.90
20985;DHT22;10651;47.552;7.606;2023-05-10T14:26:21;22.00;99.90
20985;DHT22;10651;47.552;7.606;2023-05-10T14:28:47;21.70;99.90
20985;DHT22;10651;47.552;7.606;2023-05-10T14:31:13;21.40;99.90
20985;DHT22;10651;47.552;7.606;2023-05-10T14:33:39;21.40;99.90
20985;DHT22;10651;47.552;7.606;2023-05-10T14:36:06;21.30;99.90
20985;DHT22;10651;47.552;7.606;2023-05-10T14:38:32;21.50;99.90
20985;DHT22;10651;47.552;7.606;2023-05-10T14:40:58;21.10;99.90
20985;DHT22;10651;47.552;7.606;2023-05-10T14:43:24;21.10;99.90
20985;DHT22;10651;47.552;7.606;2023-05-10T14:45:49;21.00;99.90
20985;DHT22;10651;47.552;7.606;2023-05-10T14:48:15;21.20;99.90
20985;DHT22;10651;47.552;7.606;2023-05-10T14:50:43;21.00;99.90
20985;DHT22;10651;47.552;7.606;2023-05-10T14:53:09;20.60;99.90
20985;DHT22;10651;47.552;7.606;2023-05-10T14:55:35;20.40;99.90
20985;DHT22;10651;47.552;7.606;2023-05-10T14:58:02;20.30;99.90
20985;DHT22;10651;47.552;7.606;2023-05-10T15:00:29;20.30;99.90
20985;DHT22;10651;47.552;7.606;2023-05-10T15:02:58;20.40;99.90
20985;DHT22;10651;47.552;7.606;2023-05-10T15:05:24;20.50;99.90
20985;DHT22;10651;47.552;7.606;2023-05-10T15:07:49;20.60;99.90
20985;DHT22;10651;47.552;7.606;2023-05-10T15:10:17;20.60;99.90
20985;DHT22;10651;47.552;7.606;2023-05-10T15:12:48;20.50;99.90
20985;DHT22;10651;47.552;7.606;2023-05-10T15:15:13;20.10;99.90
20985;DHT22;10651;47.552;7.606;2023-05-10T15:17:40;19.90;99.90
20985;DHT22;10651;47.552;7.606;2023-05-10T15:20:12;19.60;99.90
20985;DHT22;10651;47.552;7.606;2023-05-10T15:22:44;19.70;99.90
20985;DHT22;10651;47.552;7.606;2023-05-10T15:25:13;20.00;99.90
20985;DHT22;10651;47.552;7.606;2023-05-10T15:27:43;20.10;99.90
20985;DHT22;10651;47.552;7.606;2023-05-10T15:30:10;20.20;99.90
20985;DHT22;10651;47.552;7.606;2023-05-10T15:32:43;20.20;99.90
20985;DHT22;10651;47.552;7.606;2023-05-10T15:35:09;20.10;99.90
20985;DHT22;10651;47.552;7.606;2023-05-10T15:37:36;19.80;99.90
20985;DHT22;10651;47.552;7.606;2023-05-10T15:40:08;20.00;99.90
20985;DHT22;10651;47.552;7.606;2023-05-10T15:42:36;20.10;99.90
20985;DHT22;10651;47.552;7.606;2023-05-10T15:45:05;20.10;99.90
20985;DHT22;10651;47.552;7.606;2023-05-10T15:47:31;19.90;99.90
20985;DHT22;10651;47.552;7.606;2023-05-10T15:50:00;19.70;99.90
20985;DHT22;10651;47.552;7.606;2023-05-10T15:52:36;19.30;99.90
20985;DHT22;10651;47.552;7.606;2023-05-10T15:55:11;19.20;99.90
20985;DHT22;10651;47.552;7.606;2023-05-10T15:57:47;19.00;99.90
20985;DHT22;10651;47.552;7.606;2023-05-10T16:00:14;19.20;99.90
20985;DHT22;10651;47.552;7.606;2023-05-10T16:02:40;19.40;99.90
20985;DHT22;10651;47.552;7.606;2023-05-10T16:05:09;19.80;99.90
20985;DHT22;10651;47.552;7.606;2023-05-10T16:07:38;19.80;99.90
20985;DHT22;10651;47.552;7.606;2023-05-10T16:10:08;19.90;99.90
20985;DHT22;10651;47.552;7.606;2023-05-10T16:12:43;19.80;99.90
20985;DHT22;10651;47.552;7.606;2023-05-10T16:15:09;19.50;99.90